sensor_id;sensor_type;location;lat;lon;timestamp;P1;durP1;ratioP1;P2;durP2;ratioP2
38609;SDS011;24367;51.640;9.566;2023-04-30T00:01:53;3.85;;;1.55;;
38609;SDS011;24367;51.640;9.566;2023-04-30T00:04:20;2.72;;;1.25;;
38609;SDS011;24367;51.640;9.566;2023-04-30T00:06:46;2.15;;;1.23;;
38609;SDS011;24367;51.640;9.566;2023-04-30T00:09:14;2.80;;;1.48;;
38609;SDS011;24367;51.640;9.566;2023-04-30T00:11:40;1.92;;;1.00;;
38609;SDS011;24367;51.640;9.566;2023-04-30T00:14:06;2.15;;;1.25;;
38609;SDS011;24367;51.640;9.566;2023-04-30T00:16:34;2.90;;;1.30;;
38609;SDS011;24367;51.640;9.566;2023-04-30T00:19:00;3.38;;;1.17;;
38609;SDS011;24367;51.640;9.566;2023-04-30T00:21:26;2.17;;;1.05;;
38609;SDS011;24367;51.640;9.566;2023-04-30T00:23:53;1.98;;;1.20;;
38609;SDS011;24367;51.640;9.566;2023-04-30T00:26:20;2.03;;;1.25;;
38609;SDS011;24367;51.640;9.566;2023-04-30T00:28:47;2.25;;;1.20;;
38609;SDS011;24367;51.640;9.566;2023-04-30T00:31:13;2.60;;;1.30;;
38609;SDS011;24367;51.640;9.566;2023-04-30T00:33:40;2.90;;;1.40;;
38609;SDS011;24367;51.640;9.566;2023-04-30T00:36:06;2.42;;;1.20;;
38609;SDS011;24367;51.640;9.566;2023-04-30T00:38:33;3.92;;;1.30;;
38609;SDS011;24367;51.640;9.566;2023-04-30T00:40:59;2.05;;;1.40;;
38609;SDS011;24367;51.640;9.566;2023-04-30T00:43:27;2.80;;;1.20;;
38609;SDS011;24367;51.640;9.566;2023-04-30T00:45:53;2.92;;;1.25;;
38609;SDS011;24367;51.640;9.566;2023-04-30T00:48:21;1.65;;;1.15;;
38609;SDS011;24367;51.640;9.566;2023-04-30T00:50:48;3.75;;;1.30;;
38609;SDS011;24367;51.640;9.566;2023-04-30T00:53:14;2.03;;;1.27;;
38609;SDS011;24367;51.640;9.566;2023-04-30T00:55:41;2.33;;;1.20;;
38609;SDS011;24367;51.640;9.566;2023-04-30T00:58:09;1.75;;;1.20;;
38609;SDS011;24367;51.640;9.566;2023-04-30T01:00:37;2.60;;;1.33;;
38609;SDS011;24367;51.640;9.566;2023-04-30T01:03:03;2.55;;;1.45;;
38609;SDS011;24367;51.640;9.566;2023-04-30T01:05:30;2.35;;;1.25;;
38609;SDS011;24367;51.640;9.566;2023-04-30T01:07:56;2.28;;;1.50;;
38609;SDS011;24367;51.640;9.566;2023-04-30T01:10:24;2.00;;;1.10;;
38609;SDS011;24367;51.640;9.566;2023-04-30T01:12:58;1.80;;;1.20;;
38609;SDS011;24367;51.640;9.566;2023-04-30T01:15:30;3.10;;;1.40;;
38609;SDS011;24367;51.640;9.566;2023-04-30T01:18:03;2.55;;;1.20;;
38609;SDS011;24367;51.640;9.566;2023-04-30T01:20:31;2.00;;;1.10;;
38609;SDS011;24367;51.640;9.566;2023-04-30T01:23:01;1.85;;;1.15;;
38609;SDS011;24367;51.640;9.566;2023-04-30T01:25:43;2.88;;;1.27;;
38609;SDS011;24367;51.640;9.566;2023-04-30T01:28:14;2.88;;;1.40;;
38609;SDS011;24367;51.640;9.566;2023-04-30T01:30:42;3.10;;;1.30;;
38609;SDS011;24367;51.640;9.566;2023-04-30T01:33:09;2.20;;;1.35;;
38609;SDS011;24367;51.640;9.566;2023-04-30T01:38:31;2.47;;;1.10;;
38609;SDS011;24367;51.640;9.566;2023-04-30T01:41:05;2.92;;;1.27;;
38609;SDS011;24367;51.640;9.566;2023-04-30T01:43:37;2.22;;;1.10;;
38609;SDS011;24367;51.640;9.566;2023-04-30T01:46:09;2.40;;;1.10;;
38609;SDS011;24367;51.640;9.566;2023-04-30T01:48:41;1.40;;;0.90;;
38609;SDS011;24367;51.640;9.566;2023-04-30T01:51:19;1.60;;;1.10;;
38609;SDS011;24367;51.640;9.566;2023-04-30T01:53:50;1.60;;;1.00;;
38609;SDS011;24367;51.640;9.566;2023-04-30T01:56:20;1.80;;;1.10;;
38609;SDS011;24367;51.640;9.566;2023-04-30T01:58:52;1.83;;;1.00;;
38609;SDS011;24367;51.640;9.566;2023-04-30T02:01:25;1.98;;;1.10;;
38609;SDS011;24367;51.640;9.566;2023-04-30T02:03:52;2.05;;;1.30;;
38609;SDS011;24367;51.640;9.566;2023-04-30T02:06:19;1.77;;;0.95;;
38609;SDS011;24367;51.640;9.566;2023-04-30T02:08:45;2.08;;;1.17;;
38609;SDS011;24367;51.640;9.566;2023-04-30T02:11:12;1.70;;;1.10;;
38609;SDS011;24367;51.640;9.566;2023-04-30T02:13:38;2.78;;;1.00;;
38609;SDS011;24367;51.640;9.566;2023-04-30T02:16:06;2.20;;;1.20;;
38609;SDS011;24367;51.640;9.566;2023-04-30T02:18:33;3.00;;;1.25;;
38609;SDS011;24367;51.640;9.566;2023-04-30T02:20:59;2.55;;;1.40;;
38609;SDS011;24367;51.640;9.566;2023-04-30T02:23:26;2.00;;;1.10;;
38609;SDS011;24367;51.640;9.566;2023-04-30T02:25:52;2.17;;;1.30;;
38609;SDS011;24367;51.640;9.566;2023-04-30T02:28:19;1.83;;;1.10;;
38609;SDS011;24367;51.640;9.566;2023-04-30T02:30:45;3.13;;;1.30;;
38609;SDS011;24367;51.640;9.566;2023-04-30T02:33:15;1.45;;;1.00;;
38609;SDS011;24367;51.640;9.566;2023-04-30T02:35:42;2.40;;;1.30;;
38609;SDS011;24367;51.640;9.566;2023-04-30T02:38:08;1.95;;;1.20;;
38609;SDS011;24367;51.640;9.566;2023-04-30T02:40:34;1.33;;;0.93;;
38609;SDS011;24367;51.640;9.566;2023-04-30T02:43:02;2.42;;;1.40;;
38609;SDS011;24367;51.640;9.566;2023-04-30T02:45:30;2.33;;;1.35;;
38609;SDS011;24367;51.640;9.566;2023-04-30T02:47:57;2.22;;;1.02;;
38609;SDS011;24367;51.640;9.566;2023-04-30T02:50:24;2.35;;;1.30;;
38609;SDS011;24367;51.640;9.566;2023-04-30T02:52:51;1.70;;;1.13;;
38609;SDS011;24367;51.640;9.566;2023-04-30T02:55:17;2.20;;;1.10;;
38609;SDS011;24367;51.640;9.566;2023-04-30T02:57:44;1.98;;;1.15;;
38609;SDS011;24367;51.640;9.566;2023-04-30T03:00:10;1.80;;;1.13;;
38609;SDS011;24367;51.640;9.566;2023-04-30T03:02:38;2.15;;;1.20;;
38609;SDS011;24367;51.640;9.566;2023-04-30T03:05:05;2.00;;;1.00;;
38609;SDS011;24367;51.640;9.566;2023-04-30T03:07:33;2.10;;;1.10;;
38609;SDS011;24367;51.640;9.566;2023-04-30T03:09:59;1.75;;;1.00;;
38609;SDS011;24367;51.640;9.566;2023-04-30T03:12:26;1.70;;;1.00;;
38609;SDS011;24367;51.640;9.566;2023-04-30T03:14:52;1.80;;;1.10;;
38609;SDS011;24367;51.640;9.566;2023-04-30T03:17:18;2.00;;;1.08;;
38609;SDS011;24367;51.640;9.566;2023-04-30T03:19:45;1.77;;;1.10;;
38609;SDS011;24367;51.640;9.566;2023-04-30T03:22:11;1.70;;;1.00;;
38609;SDS011;24367;51.640;9.566;2023-04-30T03:24:39;1.70;;;1.20;;
38609;SDS011;24367;51.640;9.566;2023-04-30T03:27:06;1.55;;;0.95;;
38609;SDS011;24367;51.640;9.566;2023-04-30T03:29:32;1.85;;;1.25;;
38609;SDS011;24367;51.640;9.566;2023-04-30T03:31:58;1.77;;;1.15;;
38609;SDS011;24367;51.640;9.566;2023-04-30T03:34:25;1.65;;;1.13;;
38609;SDS011;24367;51.640;9.566;2023-04-30T03:36:51;2.05;;;1.30;;
38609;SDS011;24367;51.640;9.566;2023-04-30T03:39:17;1.77;;;0.93;;
38609;SDS011;24367;51.640;9.566;2023-04-30T03:41:45;2.08;;;1.15;;
38609;SDS011;24367;51.640;9.566;2023-04-30T03:44:11;1.92;;;1.05;;
38609;SDS011;24367;51.640;9.566;2023-04-30T03:46:39;1.60;;;0.90;;
38609;SDS011;24367;51.640;9.566;2023-04-30T03:49:06;1.63;;;1.10;;
38609;SDS011;24367;51.640;9.566;2023-04-30T03:51:32;2.90;;;1.40;;
38609;SDS011;24367;51.640;9.566;2023-04-30T03:54:03;1.95;;;1.02;;
38609;SDS011;24367;51.640;9.566;2023-04-30T03:56:30;2.83;;;1.25;;
38609;SDS011;24367;51.640;9.566;2023-04-30T03:58:57;3.03;;;1.10;;
38609;SDS011;24367;51.640;9.566;2023-04-30T04:01:24;1.85;;;1.02;;
38609;SDS011;24367;51.640;9.566;2023-04-30T04:03:51;1.90;;;1.30;;
38609;SDS011;24367;51.640;9.566;2023-04-30T04:06:17;1.77;;;1.10;;
38609;SDS011;24367;51.640;9.566;2023-04-30T04:08:45;2.00;;;1.10;;
38609;SDS011;24367;51.640;9.566;2023-04-30T04:11:11;1.60;;;1.00;;
38609;SDS011;24367;51.640;9.566;2023-04-30T04:13:37;1.58;;;1.10;;
38609;SDS011;24367;51.640;9.566;2023-04-30T04:16:06;2.72;;;1.40;;
38609;SDS011;24367;51.640;9.566;2023-04-30T04:18:33;1.70;;;1.10;;
38609;SDS011;24367;51.640;9.566;2023-04-30T04:21:00;1.85;;;1.20;;
38609;SDS011;24367;51.640;9.566;2023-04-30T04:23:28;2.53;;;1.20;;
38609;SDS011;24367;51.640;9.566;2023-04-30T04:25:54;1.92;;;1.17;;
38609;SDS011;24367;51.640;9.566;2023-04-30T04:28:21;1.55;;;1.08;;
38609;SDS011;24367;51.640;9.566;2023-04-30T04:30:48;2.50;;;1.30;;
38609;SDS011;24367;51.640;9.566;2023-04-30T04:33:15;1.92;;;1.08;;
38609;SDS011;24367;51.640;9.566;2023-04-30T04:35:43;2.40;;;1.20;;
38609;SDS011;24367;51.640;9.566;2023-04-30T04:38:10;2.78;;;1.27;;
38609;SDS011;24367;51.640;9.566;2023-04-30T04:40:37;1.77;;;1.25;;
38609;SDS011;24367;51.640;9.566;2023-04-30T04:43:04;2.08;;;1.40;;
38609;SDS011;24367;51.640;9.566;2023-04-30T04:45:30;2.03;;;1.42;;
38609;SDS011;24367;51.640;9.566;2023-04-30T04:47:58;1.75;;;1.10;;
38609;SDS011;24367;51.640;9.566;2023-04-30T04:50:27;1.55;;;1.10;;
38609;SDS011;24367;51.640;9.566;2023-04-30T04:52:53;2.22;;;1.35;;
38609;SDS011;24367;51.640;9.566;2023-04-30T04:55:20;1.90;;;1.25;;
38609;SDS011;24367;51.640;9.566;2023-04-30T04:57:47;1.85;;;1.30;;
38609;SDS011;24367;51.640;9.566;2023-04-30T05:00:13;1.63;;;1.08;;
38609;SDS011;24367;51.640;9.566;2023-04-30T05:02:42;1.40;;;1.10;;
38609;SDS011;24367;51.640;9.566;2023-04-30T05:05:09;1.58;;;1.00;;
38609;SDS011;24367;51.640;9.566;2023-04-30T05:07:37;1.70;;;1.05;;
38609;SDS011;24367;51.640;9.566;2023-04-30T05:10:04;2.05;;;1.20;;
38609;SDS011;24367;51.640;9.566;2023-04-30T05:12:31;1.85;;;1.20;;
38609;SDS011;24367;51.640;9.566;2023-04-30T05:14:58;1.65;;;1.15;;
38609;SDS011;24367;51.640;9.566;2023-04-30T05:17:24;1.88;;;1.33;;
38609;SDS011;24367;51.640;9.566;2023-04-30T05:19:51;1.95;;;1.20;;
38609;SDS011;24367;51.640;9.566;2023-04-30T05:22:17;2.15;;;1.30;;
38609;SDS011;24367;51.640;9.566;2023-04-30T05:24:46;1.70;;;1.20;;
38609;SDS011;24367;51.640;9.566;2023-04-30T05:27:12;2.03;;;1.30;;
38609;SDS011;24367;51.640;9.566;2023-04-30T05:29:38;1.67;;;1.25;;
38609;SDS011;24367;51.640;9.566;2023-04-30T05:32:05;2.13;;;1.27;;
38609;SDS011;24367;51.640;9.566;2023-04-30T05:34:31;1.73;;;1.00;;
38609;SDS011;24367;51.640;9.566;2023-04-30T05:36:58;1.38;;;0.77;;
38609;SDS011;24367;51.640;9.566;2023-04-30T05:39:25;1.67;;;1.20;;
38609;SDS011;24367;51.640;9.566;2023-04-30T05:41:53;2.25;;;1.48;;
38609;SDS011;24367;51.640;9.566;2023-04-30T05:44:20;1.55;;;0.90;;
38609;SDS011;24367;51.640;9.566;2023-04-30T05:46:46;2.65;;;1.35;;
38609;SDS011;24367;51.640;9.566;2023-04-30T05:49:13;1.63;;;1.10;;
38609;SDS011;24367;51.640;9.566;2023-04-30T05:51:39;1.85;;;1.15;;
38609;SDS011;24367;51.640;9.566;2023-04-30T05:54:06;2.00;;;1.35;;
38609;SDS011;24367;51.640;9.566;2023-04-30T05:56:32;2.13;;;1.35;;
38609;SDS011;24367;51.640;9.566;2023-04-30T05:59:00;1.80;;;1.35;;
38609;SDS011;24367;51.640;9.566;2023-04-30T06:01:26;1.70;;;1.25;;
38609;SDS011;24367;51.640;9.566;2023-04-30T06:03:53;2.40;;;1.27;;
38609;SDS011;24367;51.640;9.566;2023-04-30T06:06:19;1.98;;;1.20;;
38609;SDS011;24367;51.640;9.566;2023-04-30T06:08:46;4.20;;;1.33;;
38609;SDS011;24367;51.640;9.566;2023-04-30T06:11:12;2.70;;;1.73;;
38609;SDS011;24367;51.640;9.566;2023-04-30T06:13:39;2.10;;;1.30;;
38609;SDS011;24367;51.640;9.566;2023-04-30T06:16:07;1.48;;;1.02;;
38609;SDS011;24367;51.640;9.566;2023-04-30T06:18:33;1.58;;;1.20;;
38609;SDS011;24367;51.640;9.566;2023-04-30T06:21:00;2.22;;;1.08;;
38609;SDS011;24367;51.640;9.566;2023-04-30T06:23:26;1.67;;;1.02;;
38609;SDS011;24367;51.640;9.566;2023-04-30T06:25:53;1.63;;;1.17;;
38609;SDS011;24367;51.640;9.566;2023-04-30T06:28:19;2.10;;;1.35;;
38609;SDS011;24367;51.640;9.566;2023-04-30T06:30:46;2.15;;;1.02;;
38609;SDS011;24367;51.640;9.566;2023-04-30T06:33:13;2.03;;;1.10;;
38609;SDS011;24367;51.640;9.566;2023-04-30T06:35:40;1.83;;;1.20;;
38609;SDS011;24367;51.640;9.566;2023-04-30T06:38:06;2.00;;;1.17;;
38609;SDS011;24367;51.640;9.566;2023-04-30T06:40:32;1.45;;;1.10;;
38609;SDS011;24367;51.640;9.566;2023-04-30T06:42:59;2.13;;;1.50;;
38609;SDS011;24367;51.640;9.566;2023-04-30T06:45:25;2.20;;;1.48;;
38609;SDS011;24367;51.640;9.566;2023-04-30T06:47:52;2.17;;;1.33;;
38609;SDS011;24367;51.640;9.566;2023-04-30T06:50:20;2.20;;;1.35;;
38609;SDS011;24367;51.640;9.566;2023-04-30T06:52:47;2.13;;;1.38;;
38609;SDS011;24367;51.640;9.566;2023-04-30T06:55:13;2.28;;;1.35;;
38609;SDS011;24367;51.640;9.566;2023-04-30T06:57:40;1.52;;;1.02;;
38609;SDS011;24367;51.640;9.566;2023-04-30T07:00:07;1.55;;;1.10;;
38609;SDS011;24367;51.640;9.566;2023-04-30T07:02:33;2.13;;;1.35;;
38609;SDS011;24367;51.640;9.566;2023-04-30T07:05:00;2.20;;;1.60;;
38609;SDS011;24367;51.640;9.566;2023-04-30T07:07:28;1.70;;;1.08;;
38609;SDS011;24367;51.640;9.566;2023-04-30T07:09:55;1.85;;;1.33;;
38609;SDS011;24367;51.640;9.566;2023-04-30T07:12:21;2.08;;;1.25;;
38609;SDS011;24367;51.640;9.566;2023-04-30T07:14:48;1.88;;;1.35;;
38609;SDS011;24367;51.640;9.566;2023-04-30T07:17:14;2.30;;;1.50;;
38609;SDS011;24367;51.640;9.566;2023-04-30T07:19:41;2.13;;;1.42;;
38609;SDS011;24367;51.640;9.566;2023-04-30T07:22:08;2.22;;;1.40;;
38609;SDS011;24367;51.640;9.566;2023-04-30T07:24:35;1.83;;;1.20;;
38609;SDS011;24367;51.640;9.566;2023-04-30T07:27:02;2.00;;;1.27;;
38609;SDS011;24367;51.640;9.566;2023-04-30T07:29:28;1.65;;;1.23;;
38609;SDS011;24367;51.640;9.566;2023-04-30T07:31:55;1.73;;;1.25;;
38609;SDS011;24367;51.640;9.566;2023-04-30T07:34:22;1.70;;;1.15;;
38609;SDS011;24367;51.640;9.566;2023-04-30T07:36:50;1.65;;;1.20;;
38609;SDS011;24367;51.640;9.566;2023-04-30T07:39:16;1.98;;;1.20;;
38609;SDS011;24367;51.640;9.566;2023-04-30T07:41:44;2.03;;;1.20;;
38609;SDS011;24367;51.640;9.566;2023-04-30T07:44:10;1.38;;;1.05;;
38609;SDS011;24367;51.640;9.566;2023-04-30T07:46:37;1.77;;;1.27;;
38609;SDS011;24367;51.640;9.566;2023-04-30T07:49:03;2.90;;;1.10;;
38609;SDS011;24367;51.640;9.566;2023-04-30T07:51:30;3.95;;;1.25;;
38609;SDS011;24367;51.640;9.566;2023-04-30T07:53:58;1.90;;;1.20;;
38609;SDS011;24367;51.640;9.566;2023-04-30T07:56:24;2.78;;;1.40;;
38609;SDS011;24367;51.640;9.566;2023-04-30T07:58:52;4.55;;;1.13;;
38609;SDS011;24367;51.640;9.566;2023-04-30T08:01:18;4.63;;;1.30;;
38609;SDS011;24367;51.640;9.566;2023-04-30T08:03:44;2.67;;;1.30;;
38609;SDS011;24367;51.640;9.566;2023-04-30T08:06:11;3.33;;;1.40;;
38609;SDS011;24367;51.640;9.566;2023-04-30T08:08:37;4.45;;;1.83;;
38609;SDS011;24367;51.640;9.566;2023-04-30T08:11:04;4.13;;;1.45;;
38609;SDS011;24367;51.640;9.566;2023-04-30T08:13:30;5.03;;;1.45;;
38609;SDS011;24367;51.640;9.566;2023-04-30T08:15:58;2.38;;;1.27;;
38609;SDS011;24367;51.640;9.566;2023-04-30T08:18:24;6.70;;;1.55;;
38609;SDS011;24367;51.640;9.566;2023-04-30T08:20:51;2.85;;;1.52;;
38609;SDS011;24367;51.640;9.566;2023-04-30T08:23:17;4.13;;;1.30;;
38609;SDS011;24367;51.640;9.566;2023-04-30T08:25:44;7.25;;;1.85;;
38609;SDS011;24367;51.640;9.566;2023-04-30T08:28:10;5.05;;;1.63;;
38609;SDS011;24367;51.640;9.566;2023-04-30T08:30:37;4.63;;;1.40;;
38609;SDS011;24367;51.640;9.566;2023-04-30T08:33:05;5.57;;;1.50;;
38609;SDS011;24367;51.640;9.566;2023-04-30T08:35:31;4.60;;;1.65;;
38609;SDS011;24367;51.640;9.566;2023-04-30T08:37:57;3.15;;;1.35;;
38609;SDS011;24367;51.640;9.566;2023-04-30T08:40:24;3.08;;;1.40;;
38609;SDS011;24367;51.640;9.566;2023-04-30T08:42:52;5.05;;;1.55;;
38609;SDS011;24367;51.640;9.566;2023-04-30T08:45:23;4.05;;;1.70;;
38609;SDS011;24367;51.640;9.566;2023-04-30T08:47:50;4.35;;;1.40;;
38609;SDS011;24367;51.640;9.566;2023-04-30T08:50:18;4.40;;;1.60;;
38609;SDS011;24367;51.640;9.566;2023-04-30T08:52:44;3.38;;;1.10;;
38609;SDS011;24367;51.640;9.566;2023-04-30T08:55:11;5.15;;;1.35;;
38609;SDS011;24367;51.640;9.566;2023-04-30T08:57:37;13.02;;;2.17;;
38609;SDS011;24367;51.640;9.566;2023-04-30T09:00:04;8.77;;;1.92;;
38609;SDS011;24367;51.640;9.566;2023-04-30T09:02:32;9.55;;;2.20;;
38609;SDS011;24367;51.640;9.566;2023-04-30T09:04:58;14.30;;;2.00;;
38609;SDS011;24367;51.640;9.566;2023-04-30T09:07:26;11.80;;;2.00;;
38609;SDS011;24367;51.640;9.566;2023-04-30T09:09:56;8.60;;;1.80;;
38609;SDS011;24367;51.640;9.566;2023-04-30T09:12:24;9.57;;;1.88;;
38609;SDS011;24367;51.640;9.566;2023-04-30T09:14:57;9.45;;;1.92;;
38609;SDS011;24367;51.640;9.566;2023-04-30T09:17:26;7.78;;;2.05;;
38609;SDS011;24367;51.640;9.566;2023-04-30T09:19:52;9.18;;;2.00;;
38609;SDS011;24367;51.640;9.566;2023-04-30T09:22:19;10.80;;;2.05;;
38609;SDS011;24367;51.640;9.566;2023-04-30T09:24:47;11.00;;;1.90;;
38609;SDS011;24367;51.640;9.566;2023-04-30T09:27:15;10.15;;;2.03;;
38609;SDS011;24367;51.640;9.566;2023-04-30T09:29:42;12.50;;;2.20;;
38609;SDS011;24367;51.640;9.566;2023-04-30T09:32:09;10.45;;;2.63;;
38609;SDS011;24367;51.640;9.566;2023-04-30T09:34:35;6.75;;;2.00;;
38609;SDS011;24367;51.640;9.566;2023-04-30T09:37:02;11.43;;;2.13;;
38609;SDS011;24367;51.640;9.566;2023-04-30T09:39:28;7.93;;;2.65;;
38609;SDS011;24367;51.640;9.566;2023-04-30T09:42:07;8.40;;;2.30;;
38609;SDS011;24367;51.640;9.566;2023-04-30T09:44:36;7.50;;;1.77;;
38609;SDS011;24367;51.640;9.566;2023-04-30T09:47:04;12.05;;;2.25;;
38609;SDS011;24367;51.640;9.566;2023-04-30T09:49:30;6.90;;;2.17;;
38609;SDS011;24367;51.640;9.566;2023-04-30T09:51:57;12.95;;;2.38;;
38609;SDS011;24367;51.640;9.566;2023-04-30T09:54:27;6.72;;;1.88;;
38609;SDS011;24367;51.640;9.566;2023-04-30T09:56:54;8.23;;;2.13;;
38609;SDS011;24367;51.640;9.566;2023-04-30T09:59:25;5.68;;;1.80;;
38609;SDS011;24367;51.640;9.566;2023-04-30T10:01:54;9.65;;;2.10;;
38609;SDS011;24367;51.640;9.566;2023-04-30T10:04:23;8.15;;;1.95;;
38609;SDS011;24367;51.640;9.566;2023-04-30T10:06:50;6.90;;;1.67;;
38609;SDS011;24367;51.640;9.566;2023-04-30T10:09:17;8.20;;;2.22;;
38609;SDS011;24367;51.640;9.566;2023-04-30T10:11:44;6.20;;;2.10;;
38609;SDS011;24367;51.640;9.566;2023-04-30T10:14:11;5.85;;;1.98;;
38609;SDS011;24367;51.640;9.566;2023-04-30T10:16:48;6.38;;;1.65;;
38609;SDS011;24367;51.640;9.566;2023-04-30T10:19:17;4.75;;;1.92;;
38609;SDS011;24367;51.640;9.566;2023-04-30T10:21:45;7.72;;;2.25;;
38609;SDS011;24367;51.640;9.566;2023-04-30T10:24:12;6.30;;;1.58;;
38609;SDS011;24367;51.640;9.566;2023-04-30T10:26:40;6.68;;;1.95;;
38609;SDS011;24367;51.640;9.566;2023-04-30T10:29:07;4.93;;;1.75;;
38609;SDS011;24367;51.640;9.566;2023-04-30T10:31:34;5.60;;;1.63;;
38609;SDS011;24367;51.640;9.566;2023-04-30T10:34:05;6.10;;;1.60;;
38609;SDS011;24367;51.640;9.566;2023-04-30T10:36:37;7.32;;;2.08;;
38609;SDS011;24367;51.640;9.566;2023-04-30T10:39:05;13.07;;;2.42;;
38609;SDS011;24367;51.640;9.566;2023-04-30T10:41:32;14.10;;;2.42;;
38609;SDS011;24367;51.640;9.566;2023-04-30T10:44:00;12.07;;;2.38;;
38609;SDS011;24367;51.640;9.566;2023-04-30T10:46:26;15.88;;;2.60;;
38609;SDS011;24367;51.640;9.566;2023-04-30T10:48:53;8.73;;;1.50;;
38609;SDS011;24367;51.640;9.566;2023-04-30T10:51:21;11.20;;;1.80;;
38609;SDS011;24367;51.640;9.566;2023-04-30T10:53:48;9.35;;;1.88;;
38609;SDS011;24367;51.640;9.566;2023-04-30T10:56:28;11.90;;;2.20;;
38609;SDS011;24367;51.640;9.566;2023-04-30T10:58:57;10.93;;;2.95;;
38609;SDS011;24367;51.640;9.566;2023-04-30T11:01:24;11.48;;;2.85;;
38609;SDS011;24367;51.640;9.566;2023-04-30T11:04:02;10.60;;;2.35;;
38609;SDS011;24367;51.640;9.566;2023-04-30T11:06:47;11.50;;;2.10;;
38609;SDS011;24367;51.640;9.566;2023-04-30T11:11:42;16.02;;;2.97;;
38609;SDS011;24367;51.640;9.566;2023-04-30T11:14:09;11.68;;;2.33;;
38609;SDS011;24367;51.640;9.566;2023-04-30T11:16:37;10.38;;;2.05;;
38609;SDS011;24367;51.640;9.566;2023-04-30T11:19:10;12.52;;;2.35;;
38609;SDS011;24367;51.640;9.566;2023-04-30T11:21:39;7.15;;;1.83;;
38609;SDS011;24367;51.640;9.566;2023-04-30T11:24:07;6.45;;;1.58;;
38609;SDS011;24367;51.640;9.566;2023-04-30T11:29:30;13.57;;;2.65;;
38609;SDS011;24367;51.640;9.566;2023-04-30T11:31:59;14.52;;;2.22;;
38609;SDS011;24367;51.640;9.566;2023-04-30T11:34:25;8.18;;;2.05;;
38609;SDS011;24367;51.640;9.566;2023-04-30T11:36:52;6.45;;;1.83;;
38609;SDS011;24367;51.640;9.566;2023-04-30T11:39:21;8.00;;;2.03;;
38609;SDS011;24367;51.640;9.566;2023-04-30T11:41:49;14.82;;;1.98;;
38609;SDS011;24367;51.640;9.566;2023-04-30T11:44:21;5.70;;;1.80;;
38609;SDS011;24367;51.640;9.566;2023-04-30T11:46:48;5.78;;;1.85;;
38609;SDS011;24367;51.640;9.566;2023-04-30T11:49:16;6.97;;;2.38;;
38609;SDS011;24367;51.640;9.566;2023-04-30T11:51:42;6.13;;;2.05;;
38609;SDS011;24367;51.640;9.566;2023-04-30T11:54:13;7.03;;;1.98;;
38609;SDS011;24367;51.640;9.566;2023-04-30T11:56:44;8.75;;;1.85;;
38609;SDS011;24367;51.640;9.566;2023-04-30T11:59:11;5.82;;;1.83;;
38609;SDS011;24367;51.640;9.566;2023-04-30T12:01:37;9.35;;;2.03;;
38609;SDS011;24367;51.640;9.566;2023-04-30T12:04:04;7.50;;;2.17;;
38609;SDS011;24367;51.640;9.566;2023-04-30T12:06:31;8.32;;;1.77;;
38609;SDS011;24367;51.640;9.566;2023-04-30T12:08:58;8.85;;;2.45;;
38609;SDS011;24367;51.640;9.566;2023-04-30T12:11:26;10.68;;;1.88;;
38609;SDS011;24367;51.640;9.566;2023-04-30T12:13:55;6.88;;;1.92;;
38609;SDS011;24367;51.640;9.566;2023-04-30T12:16:22;8.95;;;2.50;;
38609;SDS011;24367;51.640;9.566;2023-04-30T12:18:49;7.57;;;2.03;;
38609;SDS011;24367;51.640;9.566;2023-04-30T12:21:16;8.82;;;2.13;;
38609;SDS011;24367;51.640;9.566;2023-04-30T12:23:43;8.82;;;2.03;;
38609;SDS011;24367;51.640;9.566;2023-04-30T12:26:10;7.13;;;1.73;;
38609;SDS011;24367;51.640;9.566;2023-04-30T12:28:37;8.27;;;2.33;;
38609;SDS011;24367;51.640;9.566;2023-04-30T12:31:05;7.93;;;2.28;;
38609;SDS011;24367;51.640;9.566;2023-04-30T12:33:32;11.68;;;2.33;;
38609;SDS011;24367;51.640;9.566;2023-04-30T12:35:58;7.22;;;1.77;;
38609;SDS011;24367;51.640;9.566;2023-04-30T12:38:24;9.70;;;2.53;;
38609;SDS011;24367;51.640;9.566;2023-04-30T12:40:51;9.27;;;2.10;;
38609;SDS011;24367;51.640;9.566;2023-04-30T12:43:17;6.53;;;1.80;;
38609;SDS011;24367;51.640;9.566;2023-04-30T12:45:45;9.40;;;1.98;;
38609;SDS011;24367;51.640;9.566;2023-04-30T12:48:14;7.28;;;1.92;;
38609;SDS011;24367;51.640;9.566;2023-04-30T12:50:41;10.30;;;1.98;;
38609;SDS011;24367;51.640;9.566;2023-04-30T12:53:08;4.97;;;1.60;;
38609;SDS011;24367;51.640;9.566;2023-04-30T12:55:34;8.48;;;1.63;;
38609;SDS011;24367;51.640;9.566;2023-04-30T12:58:03;7.18;;;2.13;;
38609;SDS011;24367;51.640;9.566;2023-04-30T13:00:46;7.95;;;2.08;;
38609;SDS011;24367;51.640;9.566;2023-04-30T13:03:15;6.93;;;2.08;;
38609;SDS011;24367;51.640;9.566;2023-04-30T13:05:45;7.45;;;2.17;;
38609;SDS011;24367;51.640;9.566;2023-04-30T13:08:14;5.53;;;1.88;;
38609;SDS011;24367;51.640;9.566;2023-04-30T13:10:40;5.65;;;2.08;;
38609;SDS011;24367;51.640;9.566;2023-04-30T13:13:07;5.20;;;1.88;;
38609;SDS011;24367;51.640;9.566;2023-04-30T13:15:33;6.78;;;1.95;;
38609;SDS011;24367;51.640;9.566;2023-04-30T13:17:59;4.80;;;1.50;;
38609;SDS011;24367;51.640;9.566;2023-04-30T13:20:29;5.47;;;1.73;;
38609;SDS011;24367;51.640;9.566;2023-04-30T13:22:55;4.13;;;1.55;;
38609;SDS011;24367;51.640;9.566;2023-04-30T13:25:21;4.07;;;1.52;;
38609;SDS011;24367;51.640;9.566;2023-04-30T13:27:48;6.40;;;1.67;;
38609;SDS011;24367;51.640;9.566;2023-04-30T13:30:15;4.78;;;1.75;;
38609;SDS011;24367;51.640;9.566;2023-04-30T13:32:41;6.63;;;1.80;;
38609;SDS011;24367;51.640;9.566;2023-04-30T13:35:09;7.82;;;1.67;;
38609;SDS011;24367;51.640;9.566;2023-04-30T13:37:37;7.15;;;1.88;;
38609;SDS011;24367;51.640;9.566;2023-04-30T13:40:04;7.78;;;1.98;;
38609;SDS011;24367;51.640;9.566;2023-04-30T13:42:32;7.03;;;1.38;;
38609;SDS011;24367;51.640;9.566;2023-04-30T13:44:58;8.10;;;1.73;;
38609;SDS011;24367;51.640;9.566;2023-04-30T13:47:24;7.45;;;1.77;;
38609;SDS011;24367;51.640;9.566;2023-04-30T13:49:51;4.30;;;1.52;;
38609;SDS011;24367;51.640;9.566;2023-04-30T13:52:17;9.50;;;1.60;;
38609;SDS011;24367;51.640;9.566;2023-04-30T13:54:45;16.83;;;2.47;;
38609;SDS011;24367;51.640;9.566;2023-04-30T13:57:11;11.13;;;2.10;;
38609;SDS011;24367;51.640;9.566;2023-04-30T13:59:38;13.35;;;2.45;;
38609;SDS011;24367;51.640;9.566;2023-04-30T14:02:05;15.75;;;2.13;;
38609;SDS011;24367;51.640;9.566;2023-04-30T14:04:31;8.07;;;2.03;;
38609;SDS011;24367;51.640;9.566;2023-04-30T14:06:57;13.10;;;2.55;;
38609;SDS011;24367;51.640;9.566;2023-04-30T14:09:24;16.52;;;2.38;;
38609;SDS011;24367;51.640;9.566;2023-04-30T14:11:52;10.80;;;2.83;;
38609;SDS011;24367;51.640;9.566;2023-04-30T14:14:20;12.88;;;2.22;;
38609;SDS011;24367;51.640;9.566;2023-04-30T14:16:46;8.18;;;1.77;;
38609;SDS011;24367;51.640;9.566;2023-04-30T14:19:12;10.93;;;2.45;;
38609;SDS011;24367;51.640;9.566;2023-04-30T14:21:39;11.55;;;2.30;;
38609;SDS011;24367;51.640;9.566;2023-04-30T14:24:05;9.18;;;2.30;;
38609;SDS011;24367;51.640;9.566;2023-04-30T14:26:32;15.32;;;2.00;;
38609;SDS011;24367;51.640;9.566;2023-04-30T14:28:59;17.30;;;2.60;;
38609;SDS011;24367;51.640;9.566;2023-04-30T14:31:26;9.55;;;2.10;;
38609;SDS011;24367;51.640;9.566;2023-04-30T14:33:52;11.85;;;1.88;;
38609;SDS011;24367;51.640;9.566;2023-04-30T14:36:19;5.82;;;1.85;;
38609;SDS011;24367;51.640;9.566;2023-04-30T14:38:45;11.60;;;2.03;;
38609;SDS011;24367;51.640;9.566;2023-04-30T14:41:12;9.57;;;2.03;;
38609;SDS011;24367;51.640;9.566;2023-04-30T14:43:38;15.43;;;2.22;;
38609;SDS011;24367;51.640;9.566;2023-04-30T14:46:07;4.75;;;1.60;;
38609;SDS011;24367;51.640;9.566;2023-04-30T14:48:33;5.68;;;1.70;;
38609;SDS011;24367;51.640;9.566;2023-04-30T14:51:00;4.88;;;1.35;;
38609;SDS011;24367;51.640;9.566;2023-04-30T14:53:26;6.57;;;1.80;;
38609;SDS011;24367;51.640;9.566;2023-04-30T14:55:53;7.53;;;1.92;;